LIPH

Treviso-Sant'Angelo Airport

Airport
ICAO code
LIPH
IATA Code
TSF
Summary
ICAO Region
EUR
ICAO Territory
Location

Treviso, Veneto

Serving
Treviso
Elevation
59 ft
Coordinates
45° 38' 54" N , 12° 11' 40" E
Metar
LIPH 300950Z 03005KT 350V070 9999 -RA SCT015 BKN040 18/17 Q1008

Runways

Designator Length Width Surface Rops
7/25 2420 44 ASP Yes/Yes

Airport map

Aerial View

SKYbrary Partners:

Safety knowledge contributed by: